createdAt,value
2023-02-12T00:01:51.850Z,98985.63
2023-02-12T00:04:18.447Z,98984.94
2023-02-12T00:06:44.871Z,98989.44
2023-02-12T00:09:11.337Z,98989.31
2023-02-12T00:11:37.863Z,98985.66
2023-02-12T00:14:05.598Z,98990.16
2023-02-12T00:16:32.147Z,98980.16
2023-02-12T00:18:59.292Z,98984.25
2023-02-12T00:21:25.898Z,98987.16
2023-02-12T00:23:52.384Z,98991.28
2023-02-12T00:26:19.717Z,98989.84
2023-02-12T00:28:49.157Z,98988.84
2023-02-12T00:31:18.012Z,98984.50
2023-02-12T00:33:45.034Z,98996.78
2023-02-12T00:36:23.843Z,98998.25
2023-02-12T00:38:52.024Z,99001.69
2023-02-12T00:41:19.241Z,98995.81
2023-02-12T00:43:45.791Z,99000.75
2023-02-12T00:46:12.305Z,99003.25
2023-02-12T00:48:39.145Z,99001.03
2023-02-12T00:51:06.029Z,98999.91
2023-02-12T00:53:32.908Z,99003.00
2023-02-12T00:55:59.452Z,98993.00
2023-02-12T00:58:25.972Z,98996.03
2023-02-12T01:00:53.285Z,99001.69
2023-02-12T01:03:20.130Z,99008.16
2023-02-12T01:05:47.025Z,99018.69
2023-02-12T01:08:14.358Z,99031.03
2023-02-12T01:10:41.359Z,99034.59
2023-02-12T01:13:14.047Z,99036.34
2023-02-12T01:15:41.345Z,99029.63
2023-02-12T01:18:08.325Z,99017.94
2023-02-12T01:20:34.901Z,99011.16
2023-02-12T01:23:01.657Z,99013.56
2023-02-12T01:25:28.133Z,99012.75
2023-02-12T01:27:55.257Z,99020.91
2023-02-12T01:30:24.136Z,99022.13
2023-02-12T01:32:51.290Z,99014.31
2023-02-12T01:35:17.868Z,99014.44
2023-02-12T01:37:44.517Z,99013.53
2023-02-12T01:40:19.501Z,99020.44
2023-02-12T01:42:46.102Z,99023.88
2023-02-12T01:45:12.675Z,99025.28
2023-02-12T01:47:40.432Z,99008.41
2023-02-12T01:50:07.906Z,99009.25
2023-02-12T01:52:36.315Z,99009.59
2023-02-12T01:55:04.328Z,99002.56
2023-02-12T01:57:32.108Z,98994.72
2023-02-12T02:00:00.500Z,98992.13
2023-02-12T02:02:27.632Z,98980.78
2023-02-12T02:04:56.284Z,98991.94
2023-02-12T02:07:22.785Z,98988.56
2023-02-12T02:09:49.877Z,99003.06
2023-02-12T02:12:35.102Z,99001.44
2023-02-12T02:15:02.286Z,99009.47
2023-02-12T02:17:45.256Z,99006.22
2023-02-12T02:20:30.868Z,99001.69
2023-02-12T02:23:15.647Z,98993.22
2023-02-12T02:26:09.820Z,98996.91
2023-02-12T02:28:39.386Z,99004.34
2023-02-12T02:31:27.390Z,99015.47
2023-02-12T02:33:56.468Z,99014.91
2023-02-12T02:36:41.427Z,99015.91
2023-02-12T02:39:27.108Z,99022.03
2023-02-12T02:41:53.549Z,99038.00
2023-02-12T02:44:23.470Z,99042.59
2023-02-12T02:46:51.679Z,99040.88
2023-02-12T02:49:22.869Z,99026.94
2023-02-12T02:51:51.072Z,99026.38
2023-02-12T02:54:17.531Z,99028.78
2023-02-12T02:56:45.994Z,99031.44
2023-02-12T02:59:29.153Z,99021.72
2023-02-12T03:02:04.856Z,99033.97
2023-02-12T03:04:34.401Z,99041.47
2023-02-12T03:07:05.181Z,99045.09
2023-02-12T03:09:46.946Z,99035.25
2023-02-12T03:12:15.323Z,99024.47
2023-02-12T03:14:47.449Z,99023.88
2023-02-12T03:17:16.988Z,99024.78
2023-02-12T03:19:46.714Z,99030.16
2023-02-12T03:22:16.518Z,99035.47
2023-02-12T03:24:46.306Z,99034.72
2023-02-12T03:27:24.936Z,99037.50
2023-02-12T03:29:51.844Z,99029.28
2023-02-12T03:32:29.404Z,99033.22
2023-02-12T03:34:55.871Z,99035.59
2023-02-12T03:37:29.268Z,99034.84
2023-02-12T03:40:04.967Z,99033.38
2023-02-12T03:42:34.265Z,99038.53
2023-02-12T03:45:16.016Z,99042.63
2023-02-12T03:47:59.963Z,99047.19
2023-02-12T03:50:35.558Z,99042.69
2023-02-12T03:53:02.452Z,99051.03
2023-02-12T03:55:30.130Z,99069.66
2023-02-12T03:58:00.836Z,99066.69
2023-02-12T04:00:27.674Z,99066.53
2023-02-12T04:02:54.443Z,99079.59
2023-02-12T04:05:22.071Z,99083.53
2023-02-12T04:07:49.368Z,99075.88
2023-02-12T04:10:16.346Z,99084.09
2023-02-12T04:12:51.769Z,99084.41
2023-02-12T04:15:26.203Z,99088.97
2023-02-12T04:18:16.125Z,99087.19
2023-02-12T04:20:54.983Z,99089.78
2023-02-12T04:23:35.407Z,99080.28
2023-02-12T04:26:02.393Z,99090.34
2023-02-12T04:28:49.171Z,99070.19
2023-02-12T04:31:18.683Z,99071.66
2023-02-12T04:33:48.771Z,99063.94
2023-02-12T04:36:23.122Z,99063.41
2023-02-12T04:38:58.651Z,99065.41
2023-02-12T04:41:25.931Z,99069.31
2023-02-12T04:43:52.442Z,99083.78
2023-02-12T04:46:19.015Z,99089.19
2023-02-12T04:48:57.905Z,99089.06
2023-02-12T04:51:24.399Z,99090.84
2023-02-12T04:53:51.079Z,99092.28
2023-02-12T04:56:17.782Z,99104.06
2023-02-12T04:58:44.336Z,99112.19
2023-02-12T05:01:10.947Z,99115.53
2023-02-12T05:03:37.808Z,99117.00
2023-02-12T05:06:08.494Z,99119.94
2023-02-12T05:08:34.989Z,99120.56
2023-02-12T05:11:06.216Z,99129.00
2023-02-12T05:13:32.844Z,99131.16
2023-02-12T05:15:59.579Z,99127.88
2023-02-12T05:18:26.213Z,99132.75
2023-02-12T05:20:59.536Z,99134.56
2023-02-12T05:23:27.601Z,99131.28
2023-02-12T05:25:54.401Z,99144.66
2023-02-12T05:28:21.087Z,99142.84
2023-02-12T05:30:47.738Z,99141.22
2023-02-12T05:33:14.260Z,99148.53
2023-02-12T05:35:40.754Z,99150.53
2023-02-12T05:38:07.338Z,99156.28
2023-02-12T05:40:34.582Z,99164.09
2023-02-12T05:43:01.162Z,99160.28
2023-02-12T05:45:29.197Z,99165.72
2023-02-12T05:47:55.853Z,99170.28
2023-02-12T05:50:22.397Z,99173.75
2023-02-12T05:53:01.787Z,99174.66
2023-02-12T05:55:28.609Z,99179.00
2023-02-12T05:57:55.111Z,99184.34
2023-02-12T06:00:21.852Z,99191.06
2023-02-12T06:02:48.346Z,99194.56
2023-02-12T06:05:14.828Z,99212.84
2023-02-12T06:07:41.359Z,99214.53
2023-02-12T06:10:08.295Z,99218.59
2023-02-12T06:12:34.770Z,99222.94
2023-02-12T06:15:01.211Z,99222.59
2023-02-12T06:17:27.639Z,99223.00
2023-02-12T06:19:54.100Z,99218.81
2023-02-12T06:22:20.545Z,99220.53
2023-02-12T06:24:46.987Z,99232.06
2023-02-12T06:27:13.496Z,99236.34
2023-02-12T06:29:40.120Z,99248.56
2023-02-12T06:32:08.477Z,99251.53
2023-02-12T06:34:35.037Z,99252.06
2023-02-12T06:37:01.501Z,99248.53
2023-02-12T06:39:28.176Z,99261.03
2023-02-12T06:41:54.717Z,99247.78
2023-02-12T06:44:21.278Z,99257.56
2023-02-12T06:46:47.825Z,99267.03
2023-02-12T06:49:15.031Z,99265.09
2023-02-12T06:51:41.560Z,99257.34
2023-02-12T06:54:14.877Z,99265.38
2023-02-12T06:56:41.438Z,99269.16
2023-02-12T06:59:07.942Z,99268.16
2023-02-12T07:01:34.432Z,99286.56
2023-02-12T07:04:04.932Z,99284.09
2023-02-12T07:06:33.413Z,99277.16
2023-02-12T07:09:00.097Z,99287.19
2023-02-12T07:11:27.836Z,99288.69
2023-02-12T07:13:54.336Z,99283.03
2023-02-12T07:16:21.294Z,99287.84
2023-02-12T07:18:48.270Z,99290.66
2023-02-12T07:21:15.474Z,99286.44
2023-02-12T07:23:42.525Z,99278.69
2023-02-12T07:26:11.368Z,99288.50
2023-02-12T07:28:38.244Z,99294.00
2023-02-12T07:31:11.603Z,99298.06
2023-02-12T07:33:38.889Z,99297.53
2023-02-12T07:36:06.672Z,99295.28
2023-02-12T07:38:35.980Z,99287.25
2023-02-12T07:41:10.162Z,99288.84
2023-02-12T07:43:37.105Z,99291.06
2023-02-12T07:46:07.747Z,99287.09
2023-02-12T07:48:34.228Z,99284.16
2023-02-12T07:51:08.221Z,99284.88
2023-02-12T07:53:35.337Z,99288.88
2023-02-12T07:56:05.478Z,99286.78
2023-02-12T07:58:31.918Z,99292.78
2023-02-12T08:00:58.389Z,99297.94
2023-02-12T08:03:24.829Z,99301.91
2023-02-12T08:05:51.273Z,99295.91
2023-02-12T08:08:17.773Z,99294.56
2023-02-12T08:10:44.187Z,99293.53
2023-02-12T08:13:10.670Z,99299.91
2023-02-12T08:15:37.169Z,99303.53
2023-02-12T08:18:03.626Z,99303.97
2023-02-12T08:20:30.121Z,99298.19
2023-02-12T08:22:56.557Z,99299.81
2023-02-12T08:25:23.015Z,99299.28
2023-02-12T08:27:49.439Z,99306.13
2023-02-12T08:30:16.068Z,99295.56
2023-02-12T08:32:42.500Z,99303.16
2023-02-12T08:35:08.929Z,99292.97
2023-02-12T08:37:35.379Z,99303.47
2023-02-12T08:40:01.808Z,99294.50
2023-02-12T08:42:28.235Z,99295.06
2023-02-12T08:44:54.713Z,99291.00
2023-02-12T08:47:21.171Z,99290.22
2023-02-12T08:49:47.664Z,99283.94
2023-02-12T08:52:14.116Z,99290.84
2023-02-12T08:54:40.601Z,99296.97
2023-02-12T08:57:07.038Z,99299.28
2023-02-12T08:59:33.528Z,99304.22
2023-02-12T09:02:00.692Z,99309.88
2023-02-12T09:04:28.252Z,99316.66
2023-02-12T09:06:55.442Z,99310.78
2023-02-12T09:09:22.051Z,99321.44
2023-02-12T09:11:49.357Z,99325.84
2023-02-12T09:14:16.844Z,99325.09
2023-02-12T09:16:43.728Z,99326.59
2023-02-12T09:19:11.996Z,99326.84
2023-02-12T09:21:38.462Z,99321.84
2023-02-12T09:24:04.998Z,99336.84
2023-02-12T09:26:31.508Z,99334.31
2023-02-12T09:28:57.997Z,99334.59
2023-02-12T09:31:26.617Z,99332.72
2023-02-12T09:33:55.360Z,99337.44
2023-02-12T09:36:22.319Z,99348.53
2023-02-12T09:38:49.664Z,99353.81
2023-02-12T09:41:22.286Z,99353.34
2023-02-12T09:43:53.595Z,99352.34
2023-02-12T09:46:31.884Z,99347.63
2023-02-12T09:49:01.538Z,99350.66
2023-02-12T09:51:28.781Z,99351.22
2023-02-12T09:54:06.387Z,99353.69
2023-02-12T09:56:34.339Z,99366.69
2023-02-12T09:59:02.857Z,99353.44
2023-02-12T10:01:29.933Z,99356.41
2023-02-12T10:03:56.767Z,99353.44
2023-02-12T10:06:23.216Z,99360.69
2023-02-12T10:08:59.274Z,99356.78
2023-02-12T10:11:44.203Z,99355.72
2023-02-12T10:14:16.577Z,99354.75
2023-02-12T10:16:53.513Z,99347.53
2023-02-12T10:19:32.232Z,99352.28
2023-02-12T10:22:01.669Z,99351.09
2023-02-12T10:24:37.265Z,99343.56
2023-02-12T10:27:13.030Z,99345.72
2023-02-12T10:29:42.365Z,99336.88
2023-02-12T10:32:17.374Z,99343.72
2023-02-12T10:34:43.947Z,99339.28
2023-02-12T10:37:24.827Z,99342.50
2023-02-12T10:39:55.075Z,99346.75
2023-02-12T10:42:24.581Z,99355.53
2023-02-12T10:44:51.041Z,99352.03
2023-02-12T10:47:21.600Z,99344.97
2023-02-12T10:50:01.759Z,99336.91
2023-02-12T10:52:54.792Z,99337.13
2023-02-12T10:55:28.925Z,99340.63
2023-02-12T10:57:55.982Z,99338.16
2023-02-12T11:00:36.309Z,99332.00
2023-02-12T11:03:04.707Z,99335.50
2023-02-12T11:05:33.769Z,99345.22
2023-02-12T11:08:00.694Z,99339.16
2023-02-12T11:10:28.627Z,99337.72
2023-02-12T11:12:55.563Z,99330.03
2023-02-12T11:15:26.317Z,99322.75
2023-02-12T11:17:57.600Z,99326.53
2023-02-12T11:20:38.440Z,99320.53
2023-02-12T11:23:06.563Z,99312.22
2023-02-12T11:25:34.642Z,99313.06
2023-02-12T11:28:03.405Z,99311.34
2023-02-12T11:30:30.028Z,99313.94
2023-02-12T11:33:14.561Z,99308.25
2023-02-12T11:35:48.993Z,99319.78
2023-02-12T11:38:22.635Z,99311.72
2023-02-12T11:40:49.960Z,99300.09
2023-02-12T11:43:18.780Z,99303.41
2023-02-12T11:45:52.091Z,99318.00
2023-02-12T11:48:24.282Z,99316.91
2023-02-12T11:50:52.269Z,99321.75
2023-02-12T11:53:24.833Z,99309.97
2023-02-12T11:55:58.769Z,99302.50
2023-02-12T11:58:26.152Z,99297.84
2023-02-12T12:00:52.547Z,99291.09
2023-02-12T12:03:28.525Z,99300.31
2023-02-12T12:05:58.821Z,99291.00
2023-02-12T12:08:33.352Z,99291.81
2023-02-12T12:11:11.376Z,99289.50
2023-02-12T12:13:41.433Z,99296.59
2023-02-12T12:16:58.980Z,99283.31
2023-02-12T12:19:49.897Z,99290.75
2023-02-12T12:22:22.986Z,99279.88
2023-02-12T12:25:08.346Z,99273.63
2023-02-12T12:28:05.435Z,99275.72
2023-02-12T12:30:50.583Z,99270.28
2023-02-12T12:33:26.375Z,99275.94
2023-02-12T12:35:56.165Z,99270.56
2023-02-12T12:38:45.059Z,99265.41
2023-02-12T12:41:40.826Z,99262.72
2023-02-12T12:44:22.292Z,99251.34
2023-02-12T12:47:05.082Z,99249.97
2023-02-12T12:49:32.163Z,99245.44
2023-02-12T12:51:58.577Z,99240.06
2023-02-12T12:54:35.804Z,99230.91
2023-02-12T12:57:25.478Z,99228.44
2023-02-12T12:59:51.947Z,99232.16
2023-02-12T13:02:38.306Z,99231.28
2023-02-12T13:05:07.678Z,99220.91
2023-02-12T13:07:44.928Z,99224.59
2023-02-12T13:10:20.678Z,99225.06
2023-02-12T13:13:07.696Z,99230.75
2023-02-12T13:15:41.119Z,99237.97
2023-02-12T13:18:07.574Z,99235.78
2023-02-12T13:20:42.739Z,99234.81
2023-02-12T13:23:09.151Z,99232.88
2023-02-12T13:25:40.385Z,99223.41
2023-02-12T13:28:12.518Z,99219.25
2023-02-12T13:30:44.594Z,99219.78
2023-02-12T13:33:20.596Z,99228.91
2023-02-12T13:35:49.732Z,99225.38
2023-02-12T13:38:22.748Z,99224.16
2023-02-12T13:40:49.857Z,99224.72
2023-02-12T13:43:16.320Z,99225.75
2023-02-12T13:45:42.719Z,99219.44
2023-02-12T13:48:09.136Z,99226.22
2023-02-12T13:50:48.177Z,99228.09
2023-02-12T13:53:23.491Z,99230.78
2023-02-12T13:56:06.928Z,99232.00
2023-02-12T13:58:34.836Z,99239.47
2023-02-12T14:01:02.386Z,99238.50
2023-02-12T14:03:30.051Z,99225.84
2023-02-12T14:06:08.780Z,99230.00
2023-02-12T14:08:36.849Z,99226.59
2023-02-12T14:11:17.698Z,99223.13
2023-02-12T14:14:05.262Z,99231.94
2023-02-12T14:16:31.721Z,99230.28
2023-02-12T14:19:16.728Z,99230.31
2023-02-12T14:21:43.361Z,99223.16
2023-02-12T14:24:28.578Z,99226.06
2023-02-12T14:26:55.394Z,99227.97
2023-02-12T14:29:22.137Z,99218.94
2023-02-12T14:31:48.642Z,99227.31
2023-02-12T14:34:16.527Z,99224.75
2023-02-12T14:36:44.816Z,99232.72
2023-02-12T14:39:20.286Z,99232.00
2023-02-12T14:41:47.389Z,99237.34
2023-02-12T14:44:16.827Z,99234.94
2023-02-12T14:46:52.624Z,99232.50
2023-02-12T14:49:26.917Z,99234.53
2023-02-12T14:52:07.523Z,99248.91
2023-02-12T14:54:41.358Z,99240.69
2023-02-12T14:57:09.624Z,99241.44
2023-02-12T14:59:39.843Z,99241.28
2023-02-12T15:02:06.780Z,99245.16
2023-02-12T15:04:36.733Z,99243.41
2023-02-12T15:07:12.979Z,99248.03
2023-02-12T15:09:42.560Z,99247.59
2023-02-12T15:12:32.679Z,99252.28
2023-02-12T15:15:06.351Z,99251.13
2023-02-12T15:17:34.919Z,99254.53
2023-02-12T15:20:06.041Z,99258.25
2023-02-12T15:22:42.142Z,99255.69
2023-02-12T15:25:24.602Z,99255.41
2023-02-12T15:28:14.104Z,99249.34
2023-02-12T15:30:42.455Z,99256.09
2023-02-12T15:33:09.086Z,99258.94
2023-02-12T15:35:39.820Z,99255.59
2023-02-12T15:38:10.754Z,99256.59
2023-02-12T15:40:37.283Z,99266.50
2023-02-12T15:43:05.648Z,99266.25
2023-02-12T15:45:36.373Z,99265.75
2023-02-12T15:48:08.878Z,99279.91
2023-02-12T15:50:36.705Z,99282.06
2023-02-12T15:53:03.621Z,99293.84
2023-02-12T15:55:35.951Z,99287.63
2023-02-12T15:58:02.478Z,99295.63
2023-02-12T16:00:36.156Z,99299.03
2023-02-12T16:03:02.607Z,99294.00
2023-02-12T16:05:29.722Z,99295.47
2023-02-12T16:07:56.431Z,99300.94
2023-02-12T16:10:23.269Z,99315.03
2023-02-12T16:12:50.460Z,99313.41
2023-02-12T16:15:24.737Z,99315.84
2023-02-12T16:17:51.279Z,99312.59
2023-02-12T16:20:20.603Z,99319.41
2023-02-12T16:22:48.275Z,99326.94
2023-02-12T16:25:22.727Z,99335.47
2023-02-12T16:27:53.666Z,99337.41
2023-02-12T16:30:32.252Z,99343.97
2023-02-12T16:32:59.057Z,99343.34
2023-02-12T16:35:30.528Z,99346.44
2023-02-12T16:38:02.912Z,99345.94
2023-02-12T16:40:33.805Z,99349.41
2023-02-12T16:43:03.965Z,99361.47
2023-02-12T16:45:34.712Z,99368.66
2023-02-12T16:48:16.282Z,99379.13
2023-02-12T16:50:45.963Z,99386.00
2023-02-12T16:53:31.648Z,99385.28
2023-02-12T16:55:58.854Z,99388.56
2023-02-12T16:58:28.636Z,99395.78
2023-02-12T17:00:55.668Z,99403.59
2023-02-12T17:03:22.527Z,99402.03
2023-02-12T17:05:49.405Z,99414.91
2023-02-12T17:08:17.764Z,99413.75
2023-02-12T17:10:48.284Z,99415.88
2023-02-12T17:13:14.903Z,99416.38
2023-02-12T17:15:52.603Z,99418.69
2023-02-12T17:18:19.661Z,99429.06
2023-02-12T17:20:53.216Z,99432.19
2023-02-12T17:23:19.801Z,99431.53
2023-02-12T17:25:46.376Z,99432.47
2023-02-12T17:28:13.014Z,99431.97
2023-02-12T17:30:39.494Z,99436.38
2023-02-12T17:33:05.992Z,99435.59
2023-02-12T17:35:32.458Z,99448.31
2023-02-12T17:37:59.212Z,99441.81
2023-02-12T17:40:25.729Z,99448.50
2023-02-12T17:42:52.152Z,99443.16
2023-02-12T17:45:19.067Z,99453.09
2023-02-12T17:47:45.622Z,99460.81
2023-02-12T17:50:13.766Z,99469.63
2023-02-12T17:52:40.421Z,99462.50
2023-02-12T17:55:07.412Z,99470.97
2023-02-12T17:57:34.114Z,99464.56
2023-02-12T18:00:00.617Z,99470.69
2023-02-12T18:02:27.138Z,99464.47
2023-02-12T18:04:53.626Z,99474.31
2023-02-12T18:07:20.119Z,99476.25
2023-02-12T18:09:46.557Z,99475.31
2023-02-12T18:12:13.019Z,99482.28
2023-02-12T18:14:39.640Z,99474.44
2023-02-12T18:17:06.126Z,99474.72
2023-02-12T18:19:32.701Z,99470.31
2023-02-12T18:21:59.207Z,99469.47
2023-02-12T18:24:25.687Z,99478.22
2023-02-12T18:26:52.335Z,99479.34
2023-02-12T18:29:18.900Z,99477.13
2023-02-12T18:31:45.561Z,99478.88
2023-02-12T18:34:12.075Z,99481.75
2023-02-12T18:36:38.548Z,99480.75
2023-02-12T18:39:04.999Z,99472.94
2023-02-12T18:41:31.848Z,99477.81
2023-02-12T18:43:58.699Z,99483.03
2023-02-12T18:46:26.748Z,99481.66
2023-02-12T18:48:53.992Z,99487.53
2023-02-12T18:51:22.453Z,99487.97
2023-02-12T18:53:54.144Z,99489.09
2023-02-12T18:56:20.686Z,99495.25
2023-02-12T18:58:47.122Z,99494.13
2023-02-12T19:01:14.954Z,99494.44
2023-02-12T19:03:41.522Z,99508.09
2023-02-12T19:06:08.088Z,99504.66
2023-02-12T19:08:34.704Z,99499.28
2023-02-12T19:11:01.189Z,99498.56
2023-02-12T19:13:27.732Z,99509.69
2023-02-12T19:15:54.547Z,99512.66
2023-02-12T19:18:21.068Z,99511.06
2023-02-12T19:20:47.544Z,99504.16
2023-02-12T19:23:13.999Z,99506.56
2023-02-12T19:25:42.953Z,99511.78
2023-02-12T19:28:10.097Z,99506.31
2023-02-12T19:30:37.101Z,99512.03
2023-02-12T19:33:03.749Z,99505.84
2023-02-12T19:35:30.163Z,99517.78
2023-02-12T19:37:56.634Z,99518.47
2023-02-12T19:40:23.145Z,99524.66
2023-02-12T19:42:49.677Z,99518.72
2023-02-12T19:45:16.248Z,99527.41
2023-02-12T19:47:42.810Z,99520.09
2023-02-12T19:50:09.548Z,99537.03
2023-02-12T19:52:36.380Z,99529.16
2023-02-12T19:55:03.009Z,99530.69
2023-02-12T19:57:29.510Z,99533.16
2023-02-12T19:59:55.943Z,99540.09
2023-02-12T20:02:22.688Z,99547.59
2023-02-12T20:04:49.165Z,99538.75
2023-02-12T20:07:15.600Z,99544.09
2023-02-12T20:09:42.152Z,99539.25
2023-02-12T20:12:08.633Z,99549.47
2023-02-12T20:14:35.605Z,99545.34
2023-02-12T20:17:02.130Z,99548.81
2023-02-12T20:19:29.960Z,99547.75
2023-02-12T20:21:57.634Z,99552.03
2023-02-12T20:24:25.676Z,99549.16
2023-02-12T20:26:52.449Z,99556.25
2023-02-12T20:29:18.991Z,99558.28
2023-02-12T20:31:45.697Z,99563.91
2023-02-12T20:34:14.808Z,99564.63
2023-02-12T20:36:42.560Z,99558.69
2023-02-12T20:39:10.602Z,99559.22
2023-02-12T20:41:37.371Z,99565.16
2023-02-12T20:44:08.348Z,99563.50
2023-02-12T20:46:39.462Z,99563.94
2023-02-12T20:49:06.382Z,99563.44
2023-02-12T20:51:33.181Z,99568.16
2023-02-12T20:54:01.141Z,99572.22
2023-02-12T20:56:28.955Z,99576.97
2023-02-12T20:58:55.668Z,99576.88
2023-02-12T21:01:26.599Z,99573.88
2023-02-12T21:03:53.702Z,99585.88
2023-02-12T21:06:20.839Z,99571.16
2023-02-12T21:08:47.697Z,99573.50
2023-02-12T21:11:16.266Z,99579.63
2023-02-12T21:13:50.422Z,99570.78
2023-02-12T21:16:25.600Z,99575.31
2023-02-12T21:18:52.540Z,99574.47
2023-02-12T21:21:21.478Z,99570.47
2023-02-12T21:23:48.651Z,99575.13
2023-02-12T21:26:18.346Z,99586.53
2023-02-12T21:28:45.534Z,99586.72
2023-02-12T21:31:13.418Z,99588.06
2023-02-12T21:33:40.690Z,99584.69
2023-02-12T21:36:08.663Z,99590.72
2023-02-12T21:38:37.859Z,99582.31
2023-02-12T21:41:08.476Z,99583.78
2023-02-12T21:43:35.580Z,99578.09
2023-02-12T21:46:02.253Z,99582.31
2023-02-12T21:48:28.912Z,99575.84
2023-02-12T21:50:55.791Z,99575.38
2023-02-12T21:53:22.578Z,99587.50
2023-02-12T21:55:49.306Z,99582.81
2023-02-12T21:58:16.143Z,99580.66
2023-02-12T22:00:42.721Z,99580.25
2023-02-12T22:03:09.256Z,99571.91
2023-02-12T22:05:35.688Z,99581.13
2023-02-12T22:08:02.209Z,99582.22
2023-02-12T22:10:28.711Z,99571.25
2023-02-12T22:12:55.249Z,99570.25
2023-02-12T22:15:22.004Z,99568.50
2023-02-12T22:17:48.488Z,99568.22
2023-02-12T22:20:14.988Z,99569.88
2023-02-12T22:22:41.477Z,99575.84
2023-02-12T22:25:08.181Z,99574.28
2023-02-12T22:27:34.824Z,99574.63
2023-02-12T22:30:01.359Z,99576.81
2023-02-12T22:32:27.916Z,99587.91
2023-02-12T22:34:54.521Z,99585.94
2023-02-12T22:37:21.265Z,99584.34
2023-02-12T22:39:47.741Z,99587.66
2023-02-12T22:42:14.516Z,99592.97
2023-02-12T22:44:40.956Z,99581.50
2023-02-12T22:47:07.414Z,99585.34
2023-02-12T22:49:33.859Z,99587.84
2023-02-12T22:52:00.432Z,99587.22
2023-02-12T22:54:26.923Z,99583.88
2023-02-12T22:56:53.389Z,99584.34
2023-02-12T22:59:19.829Z,99594.94
2023-02-12T23:01:46.302Z,99596.44
2023-02-12T23:04:16.797Z,99598.44
2023-02-12T23:06:43.437Z,99596.13
2023-02-12T23:09:12.076Z,99599.50
2023-02-12T23:11:39.419Z,99598.13
2023-02-12T23:14:05.996Z,99593.59
2023-02-12T23:16:32.570Z,99599.34
2023-02-12T23:19:00.415Z,99602.72
2023-02-12T23:21:28.116Z,99603.28
2023-02-12T23:23:55.135Z,99606.97
2023-02-12T23:26:21.777Z,99606.84
2023-02-12T23:28:48.561Z,99609.38
2023-02-12T23:31:15.124Z,99603.16
2023-02-12T23:33:41.652Z,99601.75
2023-02-12T23:36:08.320Z,99606.41
2023-02-12T23:38:34.784Z,99601.25
2023-02-12T23:41:01.284Z,99597.91
2023-02-12T23:43:27.797Z,99598.00
2023-02-12T23:45:54.372Z,99600.03
2023-02-12T23:48:20.859Z,99601.75
2023-02-12T23:50:49.706Z,99591.81
2023-02-12T23:53:17.702Z,99599.94
2023-02-12T23:55:44.361Z,99596.25
2023-02-12T23:58:10.923Z,99599.22
